Latest Weather Observations for Bankstown

IDN60801

Issued at 12:22 pm EDT Thursday 21 March 2019 (issued every 10 minutes, with the page automatically refreshed every 10 minutes)

About weather observations | Map of weather stations | Latest weather observations for NSW | Other Formats
Station Details ID: 066137 Name: BANKSTOWN AIRPORT AWS Lat: -33.92 Lon: 150.99 Height: 6.5 m
Data from the previous 72 hours. | See also: Recent months at Bankstown
Date/Time
EDT
Temp
°C
App
Temp
°C
Dew
Point
°C
Rel
Hum
%
Delta-T
°C
Wind Press
QNH
hPa
Press
MSL
hPa
Rain since
9am
mm
Dir  Spd
km/h
Gust
km/h
Spd
kts
Gust
kts
21/12:00pm 24.3 23.8 18.7 71 3.5 S 19 28 10 15 1016.7 1016.7 4.0
21/11:30am 25.0 25.3 20.3 75 3.1 SSE 19 30 10 16 1016.7 1016.7 4.0
21/11:00am 23.1 25.0 20.6 86 1.6 SW 11 15 6 8 1016.8 1016.8 4.0
21/10:30am 21.1 23.1 19.9 93 0.8 SW 9 13 5 7 1016.9 1016.9 4.0
21/10:14am 20.5 22.2 19.3 93 0.8 WSW 9 11 5 6 1017.1 1017.1 4.0
21/10:00am 20.2 21.3 18.9 92 0.8 WSW 11 15 6 8 1017.0 1017.0 4.0
21/09:42am 20.5 20.6 18.4 88 1.3 SW 15 20 8 11 1017.0 1017.0 2.0
21/09:30am 21.0 22.3 18.4 85 1.6 SW 9 13 5 7 1016.8 1016.8 0.0
21/09:00am 20.9 21.6 17.9 83 1.9 SW 11 17 6 9 1016.4 1016.4 0.4
21/08:30am 20.2 21.0 17.2 83 1.8 WSW 9 13 5 7 1016.0 1016.0 0.4
21/08:00am 19.7 20.9 16.9 84 1.7 WSW 6 9 3 5 1015.9 1015.9 0.4
21/07:30am 19.6 20.7 17.0 85 1.6 WSW 7 11 4 6 1015.6 1015.6 0.4
21/07:00am 19.4 20.4 16.8 85 1.6 W 7 11 4 6 1015.3 1015.3 0.4
21/06:30am 19.3 20.3 16.9 86 1.5 W 7 11 4 6 1015.0 1015.0 0.4
21/06:00am 19.1 20.5 17.4 90 1.0 SW 6 11 3 6 1014.7 1014.7 0.4
21/05:30am 18.6 19.8 17.4 93 0.7 NNW 7 7 4 4 1014.5 1014.5 0.4
21/05:00am 18.7 20.2 17.5 93 0.7 NNW 6 7 3 4 1014.4 1014.4 0.4
21/04:30am 18.5 19.8 17.0 91 0.9 WNW 6 9 3 5 1014.2 1014.2 0.4
21/04:00am 18.8 20.9 17.3 91 0.9 W 2 7 1 4 1014.1 1014.1 0.4
21/03:30am 18.8 21.0 17.5 92 0.8 WSW 2 9 1 5 1014.2 1014.2 0.4
21/03:00am 18.8 21.4 17.6 93 0.7 CALM 0 0 0 0 1014.4 1014.4 0.4
21/02:30am 18.9 21.5 17.6 92 0.8 CALM 0 0 0 0 1014.5 1014.5 0.4
21/02:00am 19.1 21.7 17.6 91 0.9 CALM 0 0 0 0 1014.7 1014.7 0.4
21/01:30am 19.5 22.3 18.0 91 0.9 CALM 0 0 0 0 1015.0 1015.0 0.4
21/01:00am 19.6 22.5 18.1 91 0.9 CALM 0 0 0 0 1015.3 1015.3 0.4
21/12:30am 19.6 22.3 17.7 89 1.2 CALM 0 0 0 0 1015.4 1015.4 0.4
21/12:00am 20.7 23.9 18.8 89 1.2 CALM 0 0 0 0 1015.3 1015.3 0.4
 
Date/Time
EDT
Temp
°C
App
Temp
°C
Dew
Point
°C
Rel
Hum
%
Delta-T
°C
Wind Press
QNH
hPa
Press
MSL
hPa
Rain since
9am
mm
Dir  Spd
km/h
Gust
km/h
Spd
kts
Gust
kts
20/11:30pm 20.4 22.8 18.7 90 1.1 SW 4 6 2 3 1015.4 1015.4 0.4
20/11:00pm 20.3 22.0 18.4 89 1.2 WSW 7 9 4 5 1015.3 1015.3 0.4
20/10:30pm 20.6 23.8 18.9 90 1.1 CALM 0 0 0 0 1015.3 1015.3 0.4
20/10:00pm 20.3 21.9 18.2 88 1.3 WSW 7 9 4 5 1015.3 1015.3 0.4
20/09:30pm 21.4 23.4 18.8 85 1.6 SSW 6 9 3 5 1015.2 1015.2 0.4
20/09:00pm 21.8 23.5 18.6 82 2.0 S 7 9 4 5 1015.2 1015.2 0.4
20/08:30pm 22.6 23.7 18.8 79 2.4 SSE 11 15 6 8 1014.9 1014.9 0.4
20/08:00pm 22.9 23.6 18.9 78 2.5 SSE 13 17 7 9 1014.4 1014.4 0.4
20/07:30pm 23.0 23.1 18.3 75 2.9 SSE 15 19 8 10 1014.1 1014.1 0.4
20/07:00pm 23.3 23.3 18.0 72 3.3 SSE 15 20 8 11 1013.8 1013.8 0.4
20/06:30pm 23.6 22.5 17.3 67 3.9 SSE 19 24 10 13 1013.7 1013.7 0.4
20/06:00pm 24.5 23.4 17.7 66 4.2 SE 20 26 11 14 1013.4 1013.4 0.4
20/05:30pm 25.4 23.5 17.6 62 4.9 SSE 24 30 13 16 1013.1 1013.1 0.4
20/05:00pm 26.0 24.7 18.2 62 4.9 SE 22 30 12 16 1012.8 1012.8 0.4
20/04:30pm 25.9 24.7 18.3 63 4.8 SE 22 28 12 15 1012.8 1012.8 0.4
20/04:00pm 26.1 24.2 17.7 60 5.3 SSE 24 30 13 16 1012.9 1012.9 0.4
20/03:30pm 25.9 23.9 17.3 59 5.4 SSE 24 32 13 17 1013.0 1013.0 0.4
20/03:00pm 25.9 25.4 17.8 61 5.1 SE 17 22 9 12 1013.0 1013.0 0.4
20/02:30pm 25.8 25.5 17.4 59 5.2 S 15 24 8 13 1013.1 1013.1 0.4
20/02:00pm 25.9 24.9 17.5 59 5.3 SSE 19 24 10 13 1013.3 1013.3 0.4
20/01:30pm 26.1 25.7 18.0 61 5.1 SE 17 30 9 16 1013.5 1013.5 0.4
20/01:00pm 25.4 24.9 17.8 62 4.8 SSE 17 22 9 12 1013.9 1013.9 0.4
20/12:30pm 26.0 27.2 18.2 62 4.9 SSW 9 22 5 12 1014.1 1014.1 0.4
20/12:00pm 24.4 25.5 18.1 68 4.0 SW 9 15 5 8 1014.4 1014.4 0.4
20/11:30am 24.2 24.8 18.6 71 3.5 SE 13 24 7 13 1014.6 1014.6 0.4
20/11:00am 23.3 24.5 18.2 73 3.2 SSW 9 17 5 9 1014.9 1014.9 0.4
20/10:30am 24.4 25.8 17.9 67 4.1 S 7 13 4 7 1014.9 1014.9 0.0
20/10:00am 23.4 24.2 18.1 72 3.3 WSW 11 17 6 9 1014.8 1014.8 0.0
20/09:30am 22.2 23.1 17.6 75 2.8 SW 9 11 5 6 1014.7 1014.7 0.0
20/09:00am 20.8 21.3 17.4 81 2.1 WSW 11 15 6 8 1014.6 1014.6 0.4
20/08:30am 19.8 20.1 17.0 84 1.7 WSW 11 15 6 8 1014.4 1014.4 0.4
20/08:00am 19.4 20.7 17.0 86 1.5 WSW 6 9 3 5 1014.2 1014.2 0.4
20/07:30am 19.2 20.3 17.0 87 1.3 WSW 7 11 4 6 1013.9 1013.9 0.4
20/07:00am 19.2 21.3 17.3 89 1.2 WSW 2 6 1 3 1013.6 1013.6 0.4
20/06:30am 19.0 20.3 17.5 91 0.9 W 7 9 4 5 1013.4 1013.4 0.4
20/06:00am 18.8 21.4 17.6 93 0.7 CALM 0 0 0 0 1013.1 1013.1 0.4
20/05:30am 18.4 19.7 17.2 93 0.7 WSW 6 7 3 4 1012.8 1012.8 0.4
20/05:00am 18.8 21.5 17.8 94 0.6 CALM 0 0 0 0 1012.9 1012.9 0.4
20/04:30am 18.7 20.9 17.5 93 0.7 W 2 7 1 4 1013.0 1013.0 0.4
20/04:00am 18.5 21.0 17.3 93 0.7 CALM 0 0 0 0 1012.9 1012.9 0.4
20/03:30am 18.2 20.5 16.7 91 0.9 CALM 0 0 0 0 1013.0 1013.0 0.4
20/03:00am 19.1 21.8 17.8 92 0.8 CALM 0 0 0 0 1013.2 1013.2 0.4
20/02:30am 19.2 22.0 17.9 92 0.8 CALM 0 6 0 3 1013.4 1013.4 0.4
20/02:00am 19.1 21.7 17.4 90 1.0 CALM 0 0 0 0 1013.6 1013.6 0.4
20/01:30am 19.6 22.4 17.9 90 1.0 CALM 0 4 0 2 1013.6 1013.6 0.4
20/01:00am 19.5 21.2 18.0 91 0.9 W 6 9 3 5 1013.8 1013.8 0.4
20/12:30am 19.6 21.2 17.9 90 1.0 SW 6 7 3 4 1014.1 1014.1 0.4
20/12:00am 19.7 22.5 18.0 90 1.0 CALM 0 0 0 0 1014.2 1014.2 0.4
 
Date/Time
EDT
Temp
°C
App
Temp
°C
Dew
Point
°C
Rel
Hum
%
Delta-T
°C
Wind Press
QNH
hPa
Press
MSL
hPa
Rain since
9am
mm
Dir  Spd
km/h
Gust
km/h
Spd
kts
Gust
kts
19/11:30pm 20.0 22.8 18.0 88 1.2 CALM 0 0 0 0 1014.4 1014.4 0.4
19/11:00pm 20.3 23.2 18.2 88 1.3 CALM 0 0 0 0 1014.6 1014.6 0.4
19/10:30pm 20.6 23.5 18.2 86 1.5 CALM 0 0 0 0 1014.6 1014.6 0.4
19/10:00pm 20.5 22.2 18.1 86 1.5 SW 6 7 3 4 1014.3 1014.3 0.4
19/09:30pm 20.6 21.9 17.6 83 1.8 SW 7 9 4 5 1014.3 1014.3 0.4
19/09:00pm 20.9 22.2 17.1 79 2.3 SW 6 9 3 5 1014.1 1014.1 0.4
19/08:30pm 21.5 22.4 17.5 78 2.5 SSW 9 11 5 6 1013.6 1013.6 0.4
19/08:00pm 22.0 22.2 17.6 76 2.7 SSW 13 15 7 8 1013.1 1013.1 0.4
19/07:30pm 22.8 21.7 17.7 73 3.2 SSE 20 24 11 13 1012.9 1012.9 0.4
19/07:00pm 23.2 22.9 17.4 70 3.6 SSE 15 19 8 10 1012.6 1012.6 0.4
19/06:30pm 23.2 23.0 17.7 71 3.4 S 15 20 8 11 1012.5 1012.5 0.4
19/06:00pm 24.4 22.3 16.1 60 5.1 SE 22 28 12 15 1012.2 1012.2 0.4
19/05:30pm 25.2 23.7 16.4 58 5.4 SE 19 26 10 14 1011.9 1011.9 0.4
19/05:00pm 25.2 23.8 16.9 60 5.1 SSE 20 28 11 15 1011.8 1011.8 0.4
19/04:30pm 24.9 22.8 16.3 59 5.3 SE 22 30 12 16 1011.8 1011.8 0.4
19/04:00pm 25.7 24.2 17.6 61 5.1 S 22 30 12 16 1011.7 1011.7 0.4
19/03:30pm 24.6 22.7 16.6 61 4.9 SSE 22 32 12 17 1011.7 1011.7 0.4
19/03:00pm 25.7 24.1 17.4 60 5.2 SE 22 32 12 17 1011.9 1011.9 0.4
19/02:30pm 25.9 24.7 17.5 59 5.3 SE 20 28 11 15 1011.9 1011.9 0.4
19/02:00pm 25.9 24.4 16.7 57 5.7 SSE 20 32 11 17 1012.0 1012.0 0.4
19/01:30pm 26.0 24.5 17.6 60 5.3 SSE 22 30 12 16 1012.3 1012.3 0.4
19/01:00pm 25.3 23.6 16.2 57 5.6 SSE 20 28 11 15 1012.5 1012.5 0.4
19/12:30pm 25.3 23.0 17.7 62 4.8 SSE 26 32 14 17 1012.8 1012.8 0.4
19/12:00pm 24.0 23.6 18.0 69 3.8 SSE 17 24 9 13 1013.1 1013.1 0.4
19/11:30am 23.3 23.7 19.0 77 2.7 ESE 15 20 8 11 1013.3 1013.3 0.4
19/11:00am 22.1 24.3 19.1 83 1.9 SW 6 13 3 7 1013.3 1013.3 0.4
19/10:30am 21.2 22.3 18.8 86 1.5 WSW 11 13 6 7 1013.5 1013.5 0.4
19/10:00am 21.9 23.5 19.1 84 1.8 WSW 9 15 5 8 1013.3 1013.3 0.2
19/09:30am 21.6 23.7 19.3 87 1.5 W 7 9 4 5 1013.1 1013.1 0.2
19/09:00am 19.9 21.1 18.2 90 1.1 WSW 9 13 5 7 1012.8 1012.8 1.8
19/08:30am 19.3 21.3 17.8 91 0.9 WSW 4 9 2 5 1012.7 1012.7 1.8
19/08:00am 19.0 21.3 17.8 93 0.7 W 2 7 1 4 1012.6 1012.6 1.8
19/07:30am 18.6 20.1 17.6 94 0.6 SW 6 9 3 5 1012.3 1012.3 1.8
19/07:00am 18.3 20.8 17.3 94 0.6 CALM 0 0 0 0 1011.9 1011.9 1.2
19/06:30am 17.9 20.3 16.9 94 0.6 CALM 0 0 0 0 1011.6 1011.6 1.0
19/06:00am 17.8 20.1 16.8 94 0.6 CALM 0 6 0 3 1011.3 1011.3 1.0
19/05:30am 18.0 20.4 17.0 94 0.6 CALM 0 0 0 0 1011.1 1011.1 1.0
19/05:00am 18.1 19.2 17.1 94 0.6 WSW 7 11 4 6 1011.2 1011.2 1.0
19/04:30am 18.0 19.3 17.0 94 0.6 W 6 7 3 4 1011.3 1011.3 1.0
19/04:00am 18.4 20.6 17.4 94 0.6 W 2 6 1 3 1011.4 1011.4 1.0
19/03:30am 18.1 20.1 17.0 93 0.7 WNW 2 9 1 5 1011.5 1011.5 1.0
19/03:00am 18.8 20.7 17.6 93 0.7 WNW 4 7 2 4 1011.5 1011.5 1.0
19/02:30am 19.0 21.7 17.8 93 0.7 CALM 0 0 0 0 1011.7 1011.7 1.0
19/02:00am 19.0 21.3 17.8 93 0.7 WNW 2 7 1 4 1012.0 1012.0 0.8
19/01:30am 19.0 20.4 17.8 93 0.7 W 7 11 4 6 1012.4 1012.4 0.6
19/01:00am 19.3 21.3 17.8 91 0.9 WSW 4 7 2 4 1012.6 1012.6 0.6
19/12:30am 19.3 22.0 17.8 91 0.9 CALM 0 0 0 0 1012.6 1012.6 0.0
19/12:00am 19.4 21.8 17.9 91 0.9 WSW 2 9 1 5 1012.8 1012.8 0.0
 
Date/Time
EDT
Temp
°C
App
Temp
°C
Dew
Point
°C
Rel
Hum
%
Delta-T
°C
Wind Press
QNH
hPa
Press
MSL
hPa
Rain since
9am
mm
Dir  Spd
km/h
Gust
km/h
Spd
kts
Gust
kts
18/11:30pm 19.3 22.0 17.8 91 0.9 CALM 0 0 0 0 1012.9 1012.9 0.0
18/11:00pm 19.5 22.3 18.0 91 0.9 CALM 0 0 0 0 1012.8 1012.8 0.0
18/10:30pm 19.4 22.2 17.9 91 0.9 CALM 0 0 0 0 1012.9 1012.9 0.0
18/10:00pm 19.4 22.2 17.9 91 0.9 CALM 0 0 0 0 1012.9 1012.9 0.0
18/09:30pm 19.3 21.3 17.8 91 0.9 SW 4 6 2 3 1012.8 1012.8 0.0
18/09:00pm 19.4 21.2 17.5 89 1.2 WSW 4 9 2 5 1012.7 1012.7 0.0
18/08:30pm 19.4 22.0 17.4 88 1.2 CALM 0 0 0 0 1012.3 1012.3 0.0
18/08:00pm 19.6 22.2 17.4 87 1.3 CALM 0 0 0 0 1012.1 1012.1 0.0
18/07:30pm 19.8 20.6 17.4 86 1.5 WSW 9 11 5 6 1011.7 1011.7 0.0
18/07:00pm 20.4 22.2 17.4 83 1.8 SW 4 9 2 5 1011.6 1011.6 0.0
18/06:30pm 20.4 21.5 17.0 81 2.1 SSW 7 9 4 5 1011.4 1011.4 0.0
18/06:00pm 20.5 21.1 16.9 80 2.2 SSE 9 13 5 7 1011.0 1011.0 0.0
18/05:30pm 20.2 20.6 16.4 79 2.3 SSE 9 15 5 8 1010.9 1010.9 0.0
18/05:00pm 20.0 19.5 17.0 83 1.8 SSE 15 19 8 10 1010.7 1010.7 0.0
18/04:30pm 20.1 19.9 17.7 86 1.5 SSE 15 19 8 10 1010.7 1010.7 0.0
18/04:25pm 20.0 20.1 17.4 85 1.6 SSE 13 17 7 9 1010.7 1010.7 0.0
18/04:00pm 19.5 18.5 17.5 88 1.2 SSE 19 24 10 13 1010.8 1010.8 0.0
18/03:59pm 19.5 18.4 17.3 87 1.3 SSE 19 24 10 13 1010.8 1010.8 0.0
18/03:30pm 20.2 18.3 16.6 80 2.2 SSE 22 28 12 15 1010.8 1010.8 0.0
18/03:00pm 22.4 23.5 16.7 70 3.5 S 6 9 3 5 1010.6 1010.6 0.0
18/02:30pm 21.9 22.8 16.0 69 3.6 N 6 11 3 6 1010.9 1010.9 0.0
18/02:00pm 22.0 22.3 16.1 69 3.6 NW 9 13 5 7 1011.0 1011.0 0.0
18/01:30pm 21.7 21.9 15.8 69 3.5 N 9 15 5 8 1011.1 1011.1 0.0
18/01:00pm 21.6 21.5 15.9 70 3.4 NNW 11 17 6 9 1011.2 1011.2 0.0
18/12:30pm 21.5 21.6 16.5 73 3.0 N 11 15 6 8 1011.3 1011.3 0.0

Other formats

Comma delimited format used in spreadsheet applications
http://www.bom.gov.au/fwo/IDN60801/IDN60801.94765.axf

JavaScript Object Notation format (JSON) in row-major order
http://www.bom.gov.au/fwo/IDN60801/IDN60801.94765.json

Data quality

Most of these data are generated automatically and are frequently updated. Quality checks on data are not normally performed. It is possible for incorrect values to appear. Refer to information at About Latest Weather Observations and please check the disclaimer before using these data.